Time;durP1;ratioP1;P1;durP2;ratioP2;P2;SDS_P1;SDS_P2;PMS_P1;PMS_P2;Temp;Humidity;BMP_temperature;BMP_pressure;BME280_temperature;BME280_humidity;BME280_pressure;Samples;Min_cycle;Max_cycle;Signal;HPM_P1;HPM_P2
2022/02/02 00:00:33;;;;;;;33.25;17.40;;;;;;;-0.42;95.09;98003.23;1588933;90;26024;-70
2022/02/02 00:03:10;;;;;;;31.15;17.82;;;;;;;-0.42;95.23;97988.63;1589019;90;25580;-69
2022/02/02 00:05:54;;;;;;;36.30;18.45;;;;;;;-0.41;95.34;97993.38;1588732;90;25807;-69
2022/02/02 00:08:17;;;;;;;33.30;18.23;;;;;;;-0.40;95.19;97993.64;1587073;89;27441;-68
2022/02/02 00:13:13;;;;;;;30.77;17.10;;;;;;;-0.38;95.04;97994.91;1555889;91;25745;-69
2022/02/02 00:15:57;;;;;;;33.08;16.70;;;;;;;-0.36;95.55;97989.30;1627347;88;27828;-70
2022/02/02 00:20:56;;;;;;;27.55;15.75;;;;;;;-0.36;95.19;97984.00;1579400;90;28297;-69
2022/02/02 00:23:22;;;;;;;28.87;16.50;;;;;;;-0.32;95.24;97978.88;1579692;90;25533;-69
2022/02/02 00:26:15;;;;;;;28.80;16.07;;;;;;;-0.32;95.09;97986.85;1579633;89;25761;-69
2022/02/02 00:28:21;;;;;;;27.00;15.68;;;;;;;-0.31;95.67;97987.89;1576531;90;26566;-70
2022/02/02 00:30:45;;;;;;;29.07;15.87;;;;;;;-0.30;95.34;97970.88;1579826;90;25743;-68
2022/02/02 00:33:22;;;;;;;28.12;16.25;;;;;;;-0.27;95.10;97984.13;1579737;90;27366;-69
2022/02/02 00:35:55;;;;;;;31.73;16.23;;;;;;;-0.26;95.06;97975.06;1579463;89;26440;-70
2022/02/02 00:38:14;;;;;;;30.25;15.95;;;;;;;-0.24;95.07;97967.58;1579725;89;25663;-69
2022/02/02 00:40:43;;;;;;;26.90;15.45;;;;;;;-0.24;95.25;97963.59;1580928;90;25810;-69
2022/02/02 00:43:12;;;;;;;28.62;15.00;;;;;;;-0.22;95.08;97954.81;1588807;90;25838;-70
2022/02/02 00:45:45;;;;;;;25.37;14.00;;;;;;;-0.22;95.16;97949.50;1588903;90;27856;-70
2022/02/02 00:48:13;;;;;;;23.63;13.93;;;;;;;-0.21;95.17;97949.72;1589118;90;25649;-70
2022/02/02 00:50:40;;;;;;;28.75;14.50;;;;;;;-0.21;95.72;97941.20;1596798;87;25794;-69
2022/02/02 00:53:08;;;;;;;21.70;13.58;;;;;;;-0.20;95.43;97950.77;1646002;87;25730;-69
2022/02/02 00:55:34;;;;;;;27.75;15.43;;;;;;;-0.20;95.32;97947.33;1645929;87;25470;-69
2022/02/02 00:58:01;;;;;;;22.98;14.03;;;;;;;-0.20;95.67;97942.02;1671663;84;27356;-70
2022/02/02 01:00:28;;;;;;;24.90;14.15;;;;;;;-0.20;95.45;97940.13;1706336;84;25614;-69
2022/02/02 01:02:54;;;;;;;25.55;13.50;;;;;;;-0.22;95.89;97931.67;1706331;84;25416;-70
2022/02/02 01:05:20;;;;;;;24.80;13.88;;;;;;;-0.22;95.65;97931.67;1706177;84;25821;-70
2022/02/02 01:10:43;;;;;;;21.85;12.88;;;;;;;-0.21;95.65;97915.96;1675223;85;27349;-70
2022/02/02 01:13:35;;;;;;;21.57;13.13;;;;;;;-0.21;96.11;97926.59;1645621;87;25665;-70
2022/02/02 01:18:35;;;;;;;22.07;13.30;;;;;;;-0.20;95.75;97917.55;1645331;87;26319;-70
2022/02/02 01:21:01;;;;;;;18.35;12.03;;;;;;;-0.19;95.67;97917.00;1643522;87;25551;-70
2022/02/02 01:28:54;;;;;;;20.30;10.72;;;;;;;-0.17;96.00;97914.05;1645415;87;25497;-70
2022/02/02 01:31:21;;;;;;;21.45;11.73;;;;;;;-0.19;95.85;97898.40;1645513;87;25712;-70
2022/02/02 01:33:47;;;;;;;20.10;11.53;;;;;;;-0.18;96.26;97901.31;1645578;87;25494;-70
2022/02/02 01:36:15;;;;;;;20.35;11.28;;;;;;;-0.18;96.12;97902.64;1645548;87;27340;-70
2022/02/02 01:38:44;;;;;;;20.32;11.15;;;;;;;-0.16;96.20;97906.33;1645443;86;25721;-70
2022/02/02 01:41:18;;;;;;;17.32;9.93;;;;;;;-0.17;96.79;97908.73;1647685;86;25663;-70
2022/02/02 01:43:49;;;;;;;17.62;10.65;;;;;;;-0.15;96.00;97903.38;1654392;85;25808;-70
2022/02/02 01:46:13;;;;;;;18.73;10.30;;;;;;;-0.15;96.00;97899.40;1654617;85;25486;-70
2022/02/02 01:51:26;;;;;;;15.00;8.75;;;;;;;-0.12;96.33;97898.81;1655734;86;25745;-71
2022/02/02 01:56:06;;;;;;;;;;;;;;;-0.11;96.24;97887.08;1633959;86;25687;-71
2022/02/02 02:01:19;;;;;;;15.70;8.43;;;;;;;-0.09;96.06;97882.80;1655817;86;27343;-70
2022/02/02 02:03:46;;;;;;;13.25;8.45;;;;;;;-0.09;96.34;97888.89;1655773;86;25482;-71
2022/02/02 02:06:13;;;;;;;12.13;8.15;;;;;;;-0.09;96.36;97890.77;1655819;86;25709;-71
2022/02/02 02:08:42;;;;;;;15.68;8.98;;;;;;;-0.08;96.34;97883.05;1655769;86;25698;-71
2022/02/02 02:11:15;;;;;;;11.80;7.87;;;;;;;-0.07;96.61;97880.63;1656033;86;25427;-71
2022/02/02 02:14:18;;;;;;;12.63;8.05;;;;;;;-0.07;96.72;97896.05;1655133;86;28073;-70
2022/02/02 02:16:13;;;;;;;11.65;7.15;;;;;;;-0.07;96.63;97873.45;1651511;86;25946;-70
2022/02/02 02:18:39;;;;;;;10.98;7.75;;;;;;;-0.05;96.58;97873.94;1655911;86;25503;-70
2022/02/02 02:21:11;;;;;;;11.57;7.65;;;;;;;-0.03;96.71;97869.66;1655806;86;25740;-70
2022/02/02 02:23:34;;;;;;;11.93;7.97;;;;;;;-0.05;96.87;97869.95;1655161;86;25653;-70
2022/02/02 02:26:01;;;;;;;16.07;10.08;;;;;;;-0.04;96.51;97866.19;1655744;86;27365;-70
2022/02/02 02:28:53;;;;;;;11.90;7.65;;;;;;;-0.03;96.42;97863.80;1655680;86;25655;-70
2022/02/02 02:31:26;;;;;;;10.93;6.97;;;;;;;-0.03;96.49;97861.13;1653429;85;25249;-70
2022/02/02 02:57:53;;;;;;;9.98;7.70;;;;;;;0.02;96.45;97846.16;1655702;86;25664;-70
2022/02/02 04:00:18;;;;;;;9.50;6.30;;;;;;;0.04;96.44;97858.07;1655690;86;27534;-70
2022/02/02 04:05:27;;;;;;;10.18;7.42;;;;;;;0.06;96.54;97857.22;1655674;86;25737;-70
2022/02/02 04:07:53;;;;;;;9.43;6.70;;;;;;;0.08;97.08;97854.27;1654260;86;25638;-70
2022/02/02 04:10:16;;;;;;;9.68;6.75;;;;;;;0.09;96.81;97851.87;1654551;86;25489;-70
2022/02/02 04:37:33;;;;;;;17.30;9.65;;;;;;;0.16;97.05;97851.69;1655678;86;25417;-70
2022/02/02 04:56:01;;;;;;;27.17;11.73;;;;;;;0.82;99.60;97877.04;1655776;86;25659;-71
2022/02/02 04:58:33;;;;;;;26.60;11.60;;;;;;;0.86;99.79;97876.14;1654127;85;25587;-71
2022/02/02 05:01:48;;;;;;;21.82;11.73;;;;;;;0.91;99.68;97874.68;1654007;86;25716;-71
2022/02/02 05:03:47;;;;;;;23.22;11.00;;;;;;;0.96;99.45;97875.11;1651741;86;25595;-72
2022/02/02 05:16:40;;;;;;;25.72;10.85;;;;;;;1.16;99.48;97889.79;1655884;86;25520;-71
2022/02/02 05:25:09;;;;;;;23.45;11.65;;;;;;;1.26;99.72;97896.19;1655912;86;32899;-71
2022/02/02 05:41:04;;;;;;;23.60;10.68;;;;;;;1.33;100.00;97886.95;1655893;86;25492;-71
2022/02/02 05:45:39;;;;;;;25.40;11.70;;;;;;;1.50;99.90;97893.71;1655746;86;27481;-70
2022/02/02 05:51:04;;;;;;;20.30;9.30;;;;;;;1.55;99.70;97886.11;1655800;86;25590;-71
2022/02/02 05:53:21;;;;;;;24.65;10.15;;;;;;;1.56;99.48;97890.36;1653002;85;26224;-70
2022/02/02 05:55:50;;;;;;;16.10;8.98;;;;;;;1.57;99.31;97889.27;1655793;86;25417;-71
2022/02/02 05:58:27;;;;;;;18.35;9.70;;;;;;;1.57;99.59;97894.05;1655838;86;28102;-71
2022/02/02 06:00:57;;;;;;;14.87;7.90;;;;;;;1.59;99.42;97904.41;1655708;86;25605;-71
2022/02/02 06:03:57;;;;;;;14.50;9.55;;;;;;;1.60;100.00;97903.29;1655773;86;25463;-70
2022/02/02 06:06:25;;;;;;;;;;;;;;;1.61;99.55;97900.88;1627625;88;26227;-70
2022/02/02 06:08:53;;;;;;;15.28;7.35;;;;;;;1.61;99.55;97910.20;1654376;86;25637;-71
2022/02/02 06:11:24;;;;;;;12.73;7.30;;;;;;;1.60;99.51;97926.75;1624803;88;27938;-71
2022/02/02 06:13:56;;;;;;;11.18;6.65;;;;;;;1.59;99.31;97913.17;1652106;86;25476;-71
2022/02/02 06:16:25;;;;;;;13.18;6.62;;;;;;;1.58;99.00;97917.47;1683366;85;25552;-71
2022/02/02 06:18:57;;;;;;;11.50;6.33;;;;;;;1.58;98.83;97916.14;1683419;85;25691;-70
2022/02/02 06:21:31;;;;;;;11.25;6.28;;;;;;;1.57;98.73;97922.58;1683464;85;25591;-71
2022/02/02 06:24:08;;;;;;;11.73;6.87;;;;;;;1.56;98.61;97924.44;1624679;88;27459;-70
2022/02/02 06:26:40;;;;;;;13.98;7.33;;;;;;;1.56;98.79;97923.66;1652670;86;25686;-70
2022/02/02 06:29:11;;;;;;;19.55;7.80;;;;;;;1.56;98.82;97926.33;1624520;88;25692;-70
2022/02/02 06:31:40;;;;;;;15.75;8.58;;;;;;;1.56;99.09;97929.77;1652568;86;26291;-72
2022/02/02 06:34:12;;;;;;;14.30;8.03;;;;;;;1.57;99.41;97930.02;1624784;88;25248;-71
2022/02/02 06:36:41;;;;;;;17.62;8.35;;;;;;;1.58;99.46;97929.47;1653483;86;27407;-72
2022/02/02 06:39:11;;;;;;;14.13;7.60;;;;;;;1.59;99.69;97931.83;1655778;86;25893;-72
2022/02/02 06:41:39;;;;;;;14.68;7.47;;;;;;;1.61;99.33;97932.30;1654813;86;25465;-71
2022/02/02 06:44:07;;;;;;;15.38;7.25;;;;;;;1.61;99.37;97932.85;1656206;86;26417;-71
2022/02/02 06:46:37;;;;;;;19.52;6.55;;;;;;;1.64;99.76;97941.02;1656483;86;25633;-72
2022/02/02 06:49:02;;;;;;;10.85;6.30;;;;;;;1.65;99.87;97941.27;1656368;85;27338;-72
2022/02/02 06:51:38;;;;;;;11.85;6.30;;;;;;;1.68;99.70;97952.63;1656358;86;25482;-72
2022/02/02 06:54:28;;;;;;;16.15;7.83;;;;;;;1.71;99.83;97949.91;1655820;86;25503;-71
2022/02/02 07:04:54;;;;;;;13.18;6.60;;;;;;;1.71;99.76;97951.23;1656371;86;25655;-72
2022/02/02 07:07:27;;;;;;;11.68;6.50;;;;;;;1.75;99.58;97958.84;1654365;85;25780;-72
2022/02/02 07:12:36;;;;;;;20.05;7.80;;;;;;;1.78;99.50;97961.45;1656461;86;25592;-70
2022/02/02 07:18:06;;;;;;;14.68;7.85;;;;;;;1.79;99.40;97971.03;1656413;86;25631;-71
2022/02/02 07:23:21;;;;;;;;;;;;;;;1.78;99.44;97971.56;1658930;86;26176;-72
2022/02/02 07:28:10;;;;;;;18.87;8.30;;;;;;;1.79;99.49;97970.48;1656469;86;28041;-73
2022/02/02 07:30:46;;;;;;;14.25;8.15;;;;;;;1.79;99.90;97975.03;1654428;86;25462;-72
2022/02/02 07:33:12;;;;;;;13.75;7.50;;;;;;;1.79;100.00;97981.70;1653851;86;25214;-73
2022/02/02 07:35:50;;;;;;;17.20;7.72;;;;;;;1.80;99.51;97991.25;1633607;86;25654;-71
2022/02/02 07:38:15;;;;;;;14.33;7.40;;;;;;;1.80;99.43;97984.59;1654467;86;25433;-71
2022/02/02 07:40:47;;;;;;;17.20;7.67;;;;;;;1.80;99.48;97982.70;1654027;86;27409;-72
2022/02/02 07:43:32;;;;;;;13.98;7.67;;;;;;;1.79;99.34;97990.47;1656258;86;25791;-72
2022/02/02 07:46:04;;;;;;;18.57;7.65;;;;;;;1.78;99.35;97988.11;1634041;86;25665;-73
2022/02/02 07:48:35;;;;;;;16.12;7.70;;;;;;;1.78;99.39;97989.45;1656332;86;26184;-72
2022/02/02 07:51:05;;;;;;;18.42;8.65;;;;;;;1.78;99.25;97990.78;1656372;86;25503;-72
2022/02/02 07:53:49;;;;;;;18.07;7.95;;;;;;;1.78;99.27;97988.89;1656487;86;27384;-71
2022/02/02 07:56:14;;;;;;;13.78;7.42;;;;;;;1.88;99.32;98005.17;1633631;86;25506;-71
2022/02/02 07:58:44;;;;;;;16.20;7.08;;;;;;;1.80;99.34;97995.25;1655945;86;25593;-72
2022/02/02 08:01:10;;;;;;;16.30;6.65;;;;;;;1.79;99.16;97997.69;1656269;85;25617;-72
2022/02/02 08:03:40;;;;;;;13.72;6.67;;;;;;;1.80;99.10;98003.25;1656438;86;25508;-72
2022/02/02 08:06:09;;;;;;;14.38;6.72;;;;;;;1.81;99.26;98012.27;1656176;85;27406;-71
2022/02/02 08:08:39;;;;;;;16.30;6.78;;;;;;;1.82;99.19;98011.19;1656467;86;25635;-72
2022/02/02 08:11:09;;;;;;;10.68;6.10;;;;;;;1.83;99.04;98017.30;1656651;86;32405;-72
2022/02/02 08:13:42;;;;;;;14.43;6.90;;;;;;;1.84;98.89;98010.89;1656471;85;25625;-71
2022/02/02 08:16:11;;;;;;;14.95;6.90;;;;;;;1.82;98.92;98020.52;1634221;86;25515;-71
2022/02/02 08:18:40;;;;;;;14.00;6.58;;;;;;;1.82;98.67;98023.71;1656440;86;27460;-72
2022/02/02 08:21:08;;;;;;;12.47;7.00;;;;;;;1.81;98.69;98026.94;1656578;86;25459;-71
2022/02/02 08:23:34;;;;;;;11.57;5.85;;;;;;;1.80;98.63;98032.56;1656521;86;25198;-72
2022/02/02 08:26:05;;;;;;;13.45;7.00;;;;;;;1.78;98.58;98025.43;1656488;86;25805;-73
2022/02/02 08:28:32;;;;;;;14.75;8.43;;;;;;;1.78;98.54;98035.53;1656491;86;25190;-73
2022/02/02 08:30:58;;;;;;;11.60;5.83;;;;;;;1.79;98.71;98036.34;1647581;86;26939;-72
2022/02/02 08:33:29;;;;;;;12.93;6.83;;;;;;;1.79;98.68;98039.78;1627787;88;25776;-72
2022/02/02 08:35:56;;;;;;;12.58;6.70;;;;;;;1.78;98.53;98038.20;1656897;85;25249;-72
2022/02/02 08:41:02;;;;;;;12.45;6.55;;;;;;;1.78;98.66;98044.87;1656978;86;25655;-72
2022/02/02 08:43:27;;;;;;;12.60;6.60;;;;;;;1.78;98.68;98048.86;1662919;83;27478;-72
2022/02/02 08:46:00;;;;;;;14.73;6.33;;;;;;;1.77;98.54;98058.50;1676650;85;25676;-72
2022/02/02 08:48:26;;;;;;;8.68;5.78;;;;;;;1.77;98.60;98061.16;1676224;84;25496;-72
2022/02/02 08:50:56;;;;;;;18.10;7.72;;;;;;;1.77;98.58;98061.97;1676477;85;25679;-74
2022/02/02 08:58:35;;;;;;;14.03;6.15;;;;;;;1.75;98.71;98074.79;1679343;84;25707;-72
2022/02/02 09:01:04;;;;;;;14.33;7.20;;;;;;;1.76;98.46;98087.59;1683720;84;25716;-72
2022/02/02 09:06:15;;;;;;;16.15;6.25;;;;;;;1.75;98.41;98101.45;1676156;85;25667;-73
2022/02/02 09:08:45;;;;;;;12.33;6.40;;;;;;;1.74;98.45;98103.08;1645413;87;27363;-72
2022/02/02 09:25:01;;;;;;;14.80;7.67;;;;;;;1.76;98.73;98107.03;1646673;87;25414;-73
2022/02/02 09:34:54;;;;;;;14.15;8.03;;;;;;;1.72;98.38;98123.40;1646805;87;27341;-72
2022/02/02 09:37:22;;;;;;;15.40;9.50;;;;;;;1.72;98.24;98129.26;1646713;87;25738;-73
2022/02/02 09:39:59;;;;;;;16.23;10.03;;;;;;;1.73;98.22;98124.17;1646536;87;25458;-73
2022/02/02 09:42:20;;;;;;;16.27;9.40;;;;;;;1.74;98.22;98135.06;1645216;85;25739;-73
2022/02/02 09:44:55;;;;;;;;;;;;;;;1.74;98.28;98132.40;1653620;85;25641;-72
2022/02/02 09:47:28;;;;;;;29.25;14.00;;;;;;;1.74;98.23;98138.53;1651574;85;27380;-73
2022/02/02 09:50:01;;;;;;;16.50;8.05;;;;;;;1.78;98.38;98141.38;1652613;85;25468;-72
2022/02/02 09:52:21;;;;;;;20.17;9.65;;;;;;;1.77;98.15;98141.94;1648223;85;25478;-72
2022/02/02 10:00:42;;;;;;;13.70;8.90;;;;;;;1.81;98.16;98150.89;1681417;85;27443;-72
2022/02/02 10:03:23;;;;;;;14.65;9.08;;;;;;;1.81;97.97;98146.89;1679921;83;25399;-72
2022/02/02 10:05:48;;;;;;;17.45;9.43;;;;;;;1.82;98.12;98151.67;1661514;85;25589;-72
2022/02/02 10:11:07;;;;;;;16.97;10.80;;;;;;;1.80;97.76;98153.86;1681519;85;25787;-72
2022/02/02 10:15:58;;;;;;;23.00;11.30;;;;;;;1.77;97.85;98158.45;1611807;88;26420;-72
2022/02/02 10:18:37;;;;;;;21.55;10.82;;;;;;;1.77;97.77;98160.59;1599475;89;25879;-72
2022/02/02 10:21:03;;;;;;;14.47;8.45;;;;;;;1.78;97.78;98164.04;1599528;89;26605;-73
2022/02/02 10:23:33;;;;;;;11.85;7.70;;;;;;;1.78;97.90;98159.48;1602785;88;25624;-71
2022/02/02 10:26:19;;;;;;;15.53;9.73;;;;;;;1.76;97.75;98162.23;1623892;88;27345;-72
2022/02/02 10:28:47;;;;;;;15.43;10.23;;;;;;;1.75;97.77;98171.30;1624559;88;25857;-71
2022/02/02 10:31:15;;;;;;;12.93;8.75;;;;;;;1.74;97.53;98179.05;1625128;88;25646;-71
2022/02/02 10:33:42;;;;;;;16.23;7.75;;;;;;;1.70;97.40;98184.20;1625075;88;25643;-72
2022/02/02 10:36:20;;;;;;;18.30;9.10;;;;;;;1.69;97.46;98187.97;1625181;88;25873;-70
2022/02/02 10:39:16;;;;;;;16.82;9.75;;;;;;;1.70;97.73;98192.74;1625140;88;28057;-71
2022/02/02 10:41:58;;;;;;;14.43;9.20;;;;;;;1.70;97.70;98191.41;1624851;88;25690;-71
2022/02/02 10:44:39;;;;;;;14.95;9.43;;;;;;;1.71;97.78;98196.44;1624810;86;25427;-71
2022/02/02 10:47:27;;;;;;;13.58;9.53;;;;;;;1.72;97.93;98199.36;1623918;88;25666;-71
2022/02/02 10:50:10;;;;;;;13.60;9.93;;;;;;;1.72;97.80;98199.36;1623549;88;25550;-71
2022/02/02 10:52:40;;;;;;;14.07;9.85;;;;;;;1.71;97.73;98201.77;1629601;85;28001;-71
2022/02/02 10:58:04;;;;;;;15.93;11.48;;;;;;;1.69;97.64;98207.95;1646470;87;25712;-71
2022/02/02 11:00:53;;;;;;;10.90;8.38;;;;;;;1.70;97.63;98218.06;1632304;85;26192;-73
2022/02/02 11:08:44;;;;;;;9.48;6.92;;;;;;;1.65;97.23;98226.43;1634866;85;25765;-72
2022/02/02 11:11:14;;;;;;;8.40;6.37;;;;;;;1.63;97.26;98226.47;1653251;85;30357;-72
2022/02/02 11:13:42;;;;;;;8.35;6.47;;;;;;;1.61;97.14;98235.31;1660776;85;25663;-73
2022/02/02 11:16:17;;;;;;;9.03;6.45;;;;;;;1.60;97.16;98241.20;1670353;85;25775;-71
2022/02/02 11:18:46;;;;;;;8.35;6.03;;;;;;;1.59;97.12;98249.48;1644683;85;28050;-72
2022/02/02 11:21:18;;;;;;;9.88;5.83;;;;;;;1.60;97.11;98257.71;1651637;85;25777;-70
2022/02/02 11:23:52;;;;;;;9.45;6.55;;;;;;;1.61;97.24;98260.63;1661954;85;25343;-72
2022/02/02 11:26:43;;;;;;;9.48;6.30;;;;;;;1.62;97.19;98269.66;1639537;85;26375;-73
2022/02/02 11:29:31;;;;;;;13.20;7.20;;;;;;;1.65;97.43;98273.59;1652716;85;25676;-71
2022/02/02 11:32:10;;;;;;;10.23;7.25;;;;;;;1.65;97.32;98281.06;1665663;85;27415;-71
2022/02/02 11:34:40;;;;;;;10.82;6.75;;;;;;;1.68;97.43;98288.99;1633363;85;26068;-71
2022/02/02 11:37:09;;;;;;;10.50;7.70;;;;;;;1.65;97.01;98286.92;1667193;85;25512;-72
2022/02/02 11:40:02;;;;;;;13.08;7.90;;;;;;;1.65;96.93;98305.58;1690397;83;26367;-71
2022/02/02 11:42:56;;;;;;;15.03;9.17;;;;;;;1.65;97.05;98310.91;1674083;83;25715;-71
2022/02/02 11:45:51;;;;;;;13.65;8.68;;;;;;;1.65;97.08;98318.38;1665636;84;27401;-71
2022/02/02 11:48:54;;;;;;;13.65;8.80;;;;;;;1.78;97.08;98349.30;1686505;83;25551;-71
2022/02/02 11:51:35;;;;;;;28.17;15.80;;;;;;;1.78;97.08;98349.30;1657976;85;25696;-70
2022/02/02 11:54:02;;;;;;;17.42;10.23;;;;;;;1.65;96.99;98339.70;1670985;85;25659;-71
2022/02/02 11:56:30;;;;;;;15.58;10.18;;;;;;;1.62;96.59;98344.28;1649109;85;25782;-74
2022/02/02 11:58:57;;;;;;;18.42;11.05;;;;;;;1.61;96.67;98347.25;1667150;85;27454;-72
2022/02/02 12:01:41;;;;;;;20.02;10.72;;;;;;;1.57;96.21;98355.05;1665718;85;25658;-72
2022/02/02 12:04:25;;;;;;;16.48;10.28;;;;;;;1.52;95.96;98356.48;1654545;85;25758;-71
2022/02/02 12:07:00;;;;;;;;;;;;;;;1.45;95.81;98366.20;1670046;84;25675;-70
2022/02/02 12:09:43;;;;;;;13.98;9.43;;;;;;;1.39;95.59;98374.58;1649151;87;25656;-70
2022/02/02 12:46:45;;;;;;;74.45;29.90;;;;;;;0.69;96.57;98452.92;1616137;88;25730;-74
2022/02/02 12:49:01;;;;;;;36.15;19.52;;;;;;;0.65;96.65;98459.91;1624202;88;25721;-75
2022/02/02 12:54:27;;;;;;;46.13;25.30;;;;;;;0.64;96.85;98478.82;1600886;89;27563;-73
2022/02/02 12:56:28;;;;;;;45.90;24.07;;;;;;;0.63;96.86;98482.03;1572760;91;25746;-76
2022/02/02 13:02:09;;;;;;;42.00;24.40;;;;;;;0.59;96.93;98501.51;1622278;88;25763;-74
2022/02/02 13:04:38;;;;;;;60.58;32.00;;;;;;;0.60;97.10;98526.50;1584285;88;25547;-74
2022/02/02 13:07:17;;;;;;;41.98;24.00;;;;;;;0.59;97.18;98531.56;1603963;88;27548;-75
2022/02/02 13:09:47;;;;;;;33.83;20.77;;;;;;;0.59;97.23;98532.89;1594040;89;25769;-74
2022/02/02 13:12:52;;;;;;;31.52;18.65;;;;;;;0.59;97.26;98545.41;1604175;88;25762;-74
2022/02/02 13:15:23;;;;;;;26.82;15.70;;;;;;;0.60;97.46;98545.13;1607973;87;25775;-74
2022/02/02 13:18:06;;;;;;;27.30;15.80;;;;;;;0.61;97.55;98558.67;1618015;88;25715;-73
2022/02/02 13:20:54;;;;;;;28.38;16.45;;;;;;;0.62;97.54;98564.25;1614715;88;27443;-74
2022/02/02 13:26:20;;;;;;;30.72;17.92;;;;;;;0.61;97.57;98574.63;1604448;88;25724;-73
2022/02/02 13:28:47;;;;;;;30.08;17.17;;;;;;;0.62;97.58;98585.54;1616715;88;25782;-73
2022/02/02 13:31:43;;;;;;;29.70;17.82;;;;;;;0.61;97.67;98590.59;1662597;83;26289;-73
2022/02/02 13:34:24;;;;;;;30.85;17.42;;;;;;;0.63;97.79;98596.97;1664766;83;27857;-73
2022/02/02 13:37:06;;;;;;;31.93;18.98;;;;;;;0.63;97.82;98604.95;1692752;83;25827;-74
2022/02/02 13:45:24;;;;;;;35.03;19.48;;;;;;;0.64;97.88;98630.50;1645016;86;25761;-75
2022/02/02 14:01:33;;;;;;;44.45;22.95;;;;;;;0.65;98.20;98676.79;1665336;85;27568;-72
2022/02/02 14:04:04;;;;;;;42.98;23.15;;;;;;;0.67;98.27;98682.61;1655151;86;25624;-73
2022/02/02 14:09:09;;;;;;;42.80;23.30;;;;;;;0.70;98.41;98695.91;1656258;86;25730;-73
2022/02/02 14:33:28;;;;;;;45.12;25.25;;;;;;;0.91;98.39;98759.03;1629669;88;25754;-73
2022/02/02 14:35:58;;;;;;;42.70;23.87;;;;;;;0.92;98.32;98758.75;1629716;88;25636;-73
2022/02/02 14:38:23;;;;;;;43.28;23.85;;;;;;;0.95;98.31;98764.58;1629798;88;25286;-74
2022/02/02 14:43:31;;;;;;;48.38;24.63;;;;;;;0.96;98.21;98785.60;1629684;88;25623;-74
2022/02/02 14:45:53;;;;;;;44.75;23.90;;;;;;;0.98;98.18;98792.77;1628782;86;25824;-73
2022/02/02 14:48:28;;;;;;;40.45;23.38;;;;;;;0.99;98.09;98798.36;1600165;89;25639;-73
2022/02/02 14:53:33;;;;;;;45.48;24.77;;;;;;;1.02;98.10;98818.29;1683139;85;27355;-73
2022/02/02 15:09:45;;;;;;;43.58;24.25;;;;;;;1.03;97.71;98857.17;1626332;88;25550;-73
2022/02/02 15:30:46;;;;;;;35.40;20.90;;;;;;;0.89;96.94;98911.06;1596402;89;26397;-72
2022/02/02 15:33:06;;;;;;;38.48;20.90;;;;;;;0.88;96.95;98915.33;1596463;89;27447;-73
2022/02/02 15:35:32;;;;;;;39.90;22.55;;;;;;;0.86;96.85;98929.47;1596452;89;25887;-73
2022/02/02 15:38:06;;;;;;;47.70;25.57;;;;;;;0.86;96.90;98936.12;1596524;89;25915;-72
2022/02/02 15:40:40;;;;;;;43.68;24.25;;;;;;;0.83;96.90;98943.32;1587189;88;25686;-73
2022/02/02 15:59:05;;;;;;;45.98;24.15;;;;;;;0.87;97.52;98985.61;1591211;90;28153;-72
2022/02/02 16:02:07;;;;;;;45.05;24.05;;;;;;;0.88;97.58;98996.53;1608952;88;25569;-72
2022/02/02 16:04:21;;;;;;;48.95;26.70;;;;;;;0.89;97.62;99001.58;1604826;85;25645;-73
2022/02/02 16:06:42;;;;;;;49.50;25.72;;;;;;;0.90;97.67;99003.19;1641741;85;26340;-72
2022/02/02 16:11:35;;;;;;;44.90;25.65;;;;;;;0.93;97.74;99019.13;1701719;83;28049;-73
2022/02/02 16:14:05;;;;;;;48.50;26.75;;;;;;;0.96;97.78;99020.46;1683763;83;25806;-72
2022/02/02 16:19:01;;;;;;;47.60;26.00;;;;;;;0.98;97.81;99027.09;1694062;83;25720;-72
2022/02/02 16:33:11;;;;;;;43.68;24.85;;;;;;;1.03;97.86;99067.55;1683078;85;25648;-71
2022/02/02 16:35:43;;;;;;;42.00;22.90;;;;;;;1.03;97.83;99073.66;1679697;85;25652;-70
2022/02/02 16:37:49;;;;;;;42.23;23.32;;;;;;;1.03;97.78;99085.64;1679744;85;27433;-71
2022/02/02 16:40:20;;;;;;;38.95;21.40;;;;;;;1.03;97.81;99092.30;1682875;85;25631;-73
2022/02/02 16:45:31;;;;;;;45.08;24.30;;;;;;;1.05;97.82;99099.47;1682970;85;25866;-73
2022/02/02 16:47:57;;;;;;;39.78;23.20;;;;;;;1.05;97.86;99106.12;1684690;85;25436;-72
2022/02/02 16:50:29;;;;;;;41.30;24.90;;;;;;;1.07;97.81;99105.86;1684675;85;27319;-72
2022/02/02 16:52:56;;;;;;;39.75;22.22;;;;;;;1.06;97.71;99104.28;1683632;85;25650;-74
2022/02/02 16:58:09;;;;;;;33.15;19.17;;;;;;;1.06;97.67;99111.73;1572984;91;26153;-73
2022/02/02 17:33:16;;;;;;;38.45;22.27;;;;;;;0.93;97.24;99185.55;1568944;91;25823;-72
2022/02/02 17:35:51;;;;;;;25.72;16.42;;;;;;;0.95;97.19;99194.59;1606588;88;25535;-74
2022/02/02 17:38:16;;;;;;;29.42;17.55;;;;;;;0.94;97.11;99196.47;1624021;88;25738;-72
2022/02/02 17:56:03;;;;;;;25.62;16.27;;;;;;;0.91;96.96;99200.45;1625297;87;25694;-72
2022/02/02 18:13:47;;;;;;;24.43;16.15;;;;;;;0.93;96.84;99257.44;1679400;85;25685;-73
2022/02/02 18:16:26;;;;;;;25.45;16.80;;;;;;;0.92;96.82;99259.86;1676075;85;25494;-72
2022/02/02 18:20:56;;;;;;;24.25;16.50;;;;;;;0.90;96.68;99275.28;1679455;85;25748;-71
2022/02/02 18:26:17;;;;;;;21.90;15.15;;;;;;;0.89;96.71;99285.69;1679406;85;25881;-72
2022/02/02 18:36:33;;;;;;;24.98;15.75;;;;;;;0.88;96.58;99303.50;1679476;85;27406;-73
2022/02/02 18:42:38;;;;;;;;;;;;;;;0.87;96.58;99313.91;1681961;85;25724;-74
2022/02/02 18:49:15;;;;;;;26.40;16.57;;;;;;;0.86;96.35;99340.25;1682703;85;28118;-74
2022/02/02 18:54:38;;;;;;;25.97;16.12;;;;;;;0.84;96.33;99350.92;1682754;85;25472;-72
2022/02/02 19:05:04;;;;;;;23.57;15.00;;;;;;;0.81;96.37;99360.77;1682753;85;25655;-73
2022/02/02 19:07:41;;;;;;;25.85;15.63;;;;;;;0.82;96.39;99367.16;1679553;85;25466;-73
2022/02/02 19:37:12;;;;;;;26.80;16.15;;;;;;;0.73;96.19;99425.46;1682624;85;25767;-70
2022/02/02 19:54:20;;;;;;;32.05;19.17;;;;;;;0.72;95.22;99493.06;1711338;83;25640;-72
2022/02/02 19:55:59;;;;;;;31.70;16.57;;;;;;;0.70;95.14;99490.41;1707370;83;27337;-72
2022/02/02 20:06:34;;;;;;;26.57;15.90;;;;;;;0.67;94.57;99516.22;1711567;83;25699;-72
2022/02/02 20:11:35;;;;;;;29.75;16.80;;;;;;;0.62;93.85;99522.31;1710580;83;25775;-72
2022/02/02 20:14:02;;;;;;;32.98;17.77;;;;;;;0.62;93.84;99533.50;1710454;82;25638;-72
2022/02/02 20:16:28;;;;;;;28.07;14.87;;;;;;;0.61;93.77;99534.02;1711089;83;25623;-72
2022/02/02 20:18:57;;;;;;;24.75;14.95;;;;;;;0.62;93.58;99545.48;1711542;83;25613;-72
2022/02/02 20:21:29;;;;;;;26.05;15.35;;;;;;;0.61;93.33;99549.19;1711522;82;27885;-70
2022/02/02 20:23:53;;;;;;;28.15;16.07;;;;;;;0.60;93.34;99553.72;1711020;83;25596;-71
2022/02/02 20:26:22;;;;;;;25.75;16.05;;;;;;;0.59;93.15;99557.44;1711608;83;25586;-72
2022/02/02 20:28:49;;;;;;;22.10;13.53;;;;;;;0.58;93.16;99566.50;1711265;83;26138;-71
2022/02/02 20:31:16;;;;;;;31.65;16.05;;;;;;;0.58;93.18;99575.81;1711602;83;25612;-72
2022/02/02 20:33:43;;;;;;;26.25;14.45;;;;;;;0.57;92.98;99582.72;1711443;83;28085;-72
2022/02/02 20:36:09;;;;;;;22.55;14.10;;;;;;;0.57;92.84;99590.17;1711399;83;25258;-72
2022/02/02 20:38:37;;;;;;;25.97;15.85;;;;;;;0.58;92.84;99597.11;1711574;83;25410;-71
2022/02/02 20:41:04;;;;;;;28.70;15.25;;;;;;;0.57;92.90;99602.14;1711477;83;25650;-72
2022/02/02 20:43:48;;;;;;;28.98;15.83;;;;;;;0.56;92.98;99607.19;1711489;83;25650;-71
2022/02/02 21:05:28;;;;;;;21.62;13.25;;;;;;;0.41;91.49;99658.99;1711516;83;25559;-72
2022/02/02 21:08:05;;;;;;;26.15;14.60;;;;;;;0.37;91.29;99654.72;1710162;82;25669;-70
2022/02/02 21:10:20;;;;;;;40.03;20.55;;;;;;;0.35;91.33;99658.17;1708532;83;25429;-72
2022/02/02 21:15:32;;;;;;;21.85;12.40;;;;;;;0.31;91.36;99673.05;1711360;83;25489;-70
2022/02/02 21:18:15;;;;;;;19.77;12.33;;;;;;;0.29;91.15;99675.97;1711582;82;25812;-71
2022/02/02 21:20:48;;;;;;;22.30;13.20;;;;;;;0.28;91.12;99684.20;1711272;83;25643;-71
2022/02/02 21:23:27;;;;;;;24.65;13.20;;;;;;;0.28;91.27;99694.84;1710405;82;25620;-70
2022/02/02 21:25:59;;;;;;;26.68;14.33;;;;;;;0.27;91.32;99699.34;1708927;82;27334;-70
2022/02/02 21:28:15;;;;;;;23.02;13.85;;;;;;;0.28;91.42;99712.13;1709090;83;25747;-71
2022/02/02 21:30:43;;;;;;;22.48;14.07;;;;;;;0.28;91.37;99718.78;1711445;83;25628;-71
2022/02/02 21:33:14;;;;;;;22.35;13.58;;;;;;;0.27;91.12;99725.15;1687188;83;25677;-72